Aérodrome :
LOGIN :

S'inscrire | Disclaimer

   EN    FR    IT 

 










Légende :    VFR   VFR Marginal   IFR   IFR Intensif   IFR Très Intensif
Visi : 
Plafond : 
>= 8 km
>= 3000ft
5 à 8 km
1000 à 3000 ft
1500m à 5 km
500 à 1000 ft
800 à 1500m
200 à 500 ft
< 800m
< 200 ft
Symboles :   Orages  Brouillard  Fortes neiges  Fortes précipitations  Vent > 20 kt
SIGMETs :   Divers  Orages  Givrage  Turbulence  Onde Orograph.  Cendres Volcan.







- Altitude de l'aérodrome : 228 ft
- Code IATA : OPO


LPPR - Porto Fr. Sa Carneiro

DERNIER METAR :
  • 190000Z 04004KT CAVOK 07/06 Q1021

METARs EXPIRÉS :
  • 182330Z 06003KT 030V110 CAVOK 07/06 Q1021
  • 182300Z 36005KT CAVOK 07/06 Q1021
  • 182230Z 36004KT CAVOK 07/06 Q1021
  • 182200Z 01004KT 340V040 CAVOK 07/06 Q1021
  • 182130Z 34006KT CAVOK 08/07 Q1021

TAF TAF LPPR
Valide du 19 à 00h jusqu'au 20 à 00h UTC


182300Z 1900/1924 VRB03KT 9999 FEW015
BECMG 1900/1903 06005KT
BECMG 1906/1909 09008KT
BECMG 1911/1914 28008KT BKN040
BECMG 1918/1921 VRB03KT FEW015
Pas de NOTAMs connus pour ce terrain.



MET'MAP, la Météo Aéronautique d'un coup d'oeil ! - Copyright ORBIFLY Décembre 2007 - Disclaimer

ORBIFLY MET'MAP TEAM :

Programmation & Développement : Alexandra Zaïnal
Conception & Développement : Baudouin d'Aumeries
Co-Programmation & Développement : Marc-Olivier Méhu
Soutien technique & logistique : Manuel Goepfert

Contact : metmap@orbifly.com




SOURCES & CREDITS :

   NOAA